Terminal Aerodrome Forecast
Issued by NWS

Home | Current Version | Previous Version | Text Only | Print | Product List | Glossary On
Versions: 1 2 3 4 5 6 7 8 9 10 11 12 13 14 15 16 17 18 19 20 21 22 23
000
FTUS42 KJAX 271737
TAFVQQ
TAF
KVQQ 271737Z 2718/2818 11008KT P6SM SCT040 BKN250
     FM280300 00000KT P6SM SCT015 SCT250
     FM281600 10010G15KT P6SM SCT040 BKN250=

USA.gov is the U.S. government's official web portal to all federal, state and local government web resources and services.